createdAt,value
2018-09-16T00:02:50.396Z,11.60
2018-09-16T00:05:48.244Z,11.50
2018-09-16T00:08:45.975Z,11.50
2018-09-16T00:11:43.924Z,11.50
2018-09-16T00:14:41.555Z,11.50
2018-09-16T00:17:39.839Z,11.50
2018-09-16T00:20:37.287Z,11.50
2018-09-16T00:23:35.085Z,11.50
2018-09-16T00:26:32.818Z,11.50
2018-09-16T00:29:30.723Z,11.40
2018-09-16T00:32:34.266Z,11.40
2018-09-16T00:35:31.786Z,11.40
2018-09-16T00:38:29.449Z,11.40
2018-09-16T00:41:27.086Z,11.40
2018-09-16T00:44:24.879Z,11.40
2018-09-16T00:47:22.481Z,11.40
2018-09-16T00:50:20.116Z,11.40
2018-09-16T00:53:17.878Z,11.40
2018-09-16T00:56:16.363Z,11.40
2018-09-16T00:59:13.792Z,11.40
2018-09-16T01:02:11.512Z,11.30
2018-09-16T01:05:09.415Z,11.30
2018-09-16T01:08:06.987Z,11.30
2018-09-16T01:11:05.750Z,11.30
2018-09-16T01:14:03.411Z,11.30
2018-09-16T01:17:00.991Z,11.20
2018-09-16T01:19:58.759Z,11.20
2018-09-16T01:22:56.467Z,11.20
2018-09-16T01:25:54.228Z,11.20
2018-09-16T01:28:51.818Z,11.20
2018-09-16T01:31:49.452Z,11.20
2018-09-16T01:34:47.147Z,11.10
2018-09-16T01:37:50.820Z,11.10
2018-09-16T01:40:48.825Z,11.10
2018-09-16T01:43:46.718Z,11.10
2018-09-16T01:46:45.647Z,11.10
2018-09-16T01:49:43.511Z,11.00
2018-09-16T01:52:41.307Z,11.00
2018-09-16T01:55:39.069Z,11.00
2018-09-16T01:58:37.020Z,11.00
2018-09-16T02:01:34.566Z,11.00
2018-09-16T02:04:33.163Z,10.90
2018-09-16T02:07:31.019Z,10.90
2018-09-16T02:10:29.786Z,10.90
2018-09-16T02:13:27.590Z,10.80
2018-09-16T02:16:25.367Z,10.80
2018-09-16T02:19:23.077Z,10.80
2018-09-16T02:22:20.686Z,10.80
2018-09-16T02:25:18.635Z,10.80
2018-09-16T02:28:16.673Z,10.80
2018-09-16T02:31:14.031Z,10.70
2018-09-16T02:34:11.654Z,10.70
2018-09-16T02:37:09.390Z,10.70
2018-09-16T02:40:07.121Z,10.70
2018-09-16T02:43:04.792Z,10.60
2018-09-16T02:46:02.422Z,10.60
2018-09-16T02:49:00.195Z,10.60
2018-09-16T02:51:57.928Z,10.60
2018-09-16T02:54:55.919Z,10.50
2018-09-16T02:57:53.544Z,10.50
2018-09-16T03:00:51.283Z,10.50
2018-09-16T03:03:48.947Z,10.50
2018-09-16T03:06:46.699Z,10.40
2018-09-16T03:09:45.206Z,10.40
2018-09-16T03:12:42.991Z,10.40
2018-09-16T03:15:40.816Z,10.40
2018-09-16T03:18:38.885Z,10.40
2018-09-16T03:21:36.821Z,10.30
2018-09-16T03:24:34.663Z,10.30
2018-09-16T03:27:32.395Z,10.30
2018-09-16T03:30:30.213Z,10.30
2018-09-16T03:33:27.775Z,10.20
2018-09-16T03:36:25.534Z,10.20
2018-09-16T03:39:23.274Z,10.20
2018-09-16T03:42:21.154Z,10.20
2018-09-16T03:45:18.928Z,10.20
2018-09-16T03:48:16.643Z,10.10
2018-09-16T03:51:14.193Z,10.10
2018-09-16T03:54:11.891Z,10.10
2018-09-16T03:57:09.789Z,10.10
2018-09-16T04:00:07.740Z,10.10
2018-09-16T04:03:05.601Z,10.00
2018-09-16T04:06:03.323Z,10.00
2018-09-16T04:09:00.927Z,10.00
2018-09-16T04:11:58.854Z,10.00
2018-09-16T04:14:56.682Z,10.00
2018-09-16T04:17:54.694Z,10.00
2018-09-16T04:20:52.416Z,10.00
2018-09-16T04:23:53.996Z,9.90
2018-09-16T04:26:51.702Z,9.90
2018-09-16T04:29:49.346Z,9.90
2018-09-16T04:32:47.075Z,9.90
2018-09-16T04:35:44.766Z,9.90
2018-09-16T04:38:42.569Z,9.90
2018-09-16T04:41:40.107Z,9.90
2018-09-16T04:44:37.903Z,9.90
2018-09-16T04:47:35.488Z,9.90
2018-09-16T04:50:33.507Z,9.90
2018-09-16T04:53:31.532Z,9.90
2018-09-16T04:56:29.280Z,9.90
2018-09-16T04:59:27.007Z,9.90
2018-09-16T05:02:24.740Z,10.00
2018-09-16T05:05:22.332Z,10.00
2018-09-16T05:08:21.229Z,10.00
2018-09-16T05:11:18.938Z,10.00
2018-09-16T05:14:16.752Z,10.10
2018-09-16T05:17:14.496Z,10.10
2018-09-16T05:20:12.483Z,10.10
2018-09-16T05:23:10.219Z,10.20
2018-09-16T05:26:07.955Z,10.20
2018-09-16T05:29:05.854Z,10.20
2018-09-16T05:32:03.707Z,10.20
2018-09-16T05:35:01.412Z,10.30
2018-09-16T05:37:59.398Z,10.30
2018-09-16T05:40:58.063Z,10.30
2018-09-16T05:43:56.950Z,10.40
2018-09-16T05:46:55.428Z,10.50
2018-09-16T05:49:54.276Z,10.50
2018-09-16T05:52:53.159Z,10.60
2018-09-16T05:55:50.666Z,10.70
2018-09-16T05:58:49.569Z,10.80
2018-09-16T06:05:01.969Z,13.30
2018-09-16T06:07:59.812Z,15.40
2018-09-16T06:10:57.227Z,17.10
2018-09-16T06:13:54.740Z,18.40
2018-09-16T06:16:52.378Z,19.40
2018-09-16T06:19:50.046Z,19.80
2018-09-16T06:22:47.765Z,19.80
2018-09-16T06:25:45.334Z,20.20
2018-09-16T06:28:43.056Z,20.20
2018-09-16T06:31:40.758Z,20.20
2018-09-16T06:34:38.664Z,20.70
2018-09-16T06:37:36.366Z,21.00
2018-09-16T06:40:34.724Z,20.70
2018-09-16T06:43:33.253Z,20.80
2018-09-16T06:46:31.026Z,21.20
2018-09-16T06:49:29.799Z,21.20
2018-09-16T06:52:27.465Z,21.30
2018-09-16T06:55:25.176Z,21.40
2018-09-16T06:58:22.764Z,21.80
2018-09-16T07:01:20.458Z,21.90
2018-09-16T07:04:18.275Z,21.90
2018-09-16T07:07:16.185Z,22.40
2018-09-16T07:10:14.042Z,22.70
2018-09-16T07:13:11.849Z,22.40
2018-09-16T07:16:09.563Z,22.30
2018-09-16T07:19:07.488Z,22.30
2018-09-16T07:22:05.012Z,22.00
2018-09-16T07:25:02.677Z,22.10
2018-09-16T07:28:01.453Z,22.50
2018-09-16T07:30:59.282Z,22.90
2018-09-16T07:33:56.899Z,22.80
2018-09-16T07:36:54.815Z,22.80
2018-09-16T07:39:52.710Z,22.40
2018-09-16T07:42:50.366Z,22.30
2018-09-16T07:45:48.139Z,22.30
2018-09-16T07:48:46.025Z,22.60
2018-09-16T07:51:43.753Z,22.50
2018-09-16T07:54:41.461Z,22.50
2018-09-16T07:57:39.163Z,22.40
2018-09-16T08:00:38.074Z,22.80
2018-09-16T08:03:36.030Z,22.60
2018-09-16T08:06:33.899Z,22.30
2018-09-16T08:09:32.694Z,22.40
2018-09-16T08:12:30.655Z,22.30
2018-09-16T08:15:28.416Z,22.00
2018-09-16T08:18:26.101Z,22.10
2018-09-16T08:21:24.117Z,22.20
2018-09-16T08:24:21.647Z,22.90
2018-09-16T08:27:20.302Z,23.10
2018-09-16T08:30:17.800Z,22.90
2018-09-16T08:33:16.413Z,23.30
2018-09-16T08:36:14.119Z,23.20
2018-09-16T08:39:11.899Z,22.80
2018-09-16T08:42:10.587Z,23.10
2018-09-16T08:45:09.355Z,23.50
2018-09-16T08:48:07.177Z,23.70
2018-09-16T08:51:04.676Z,23.90
2018-09-16T08:54:02.197Z,24.40
2018-09-16T08:56:59.890Z,24.50
2018-09-16T08:59:57.431Z,25.20
2018-09-16T09:02:54.952Z,25.20
2018-09-16T09:05:52.636Z,25.40
2018-09-16T09:08:50.146Z,25.30
2018-09-16T09:11:48.576Z,25.00
2018-09-16T09:14:46.045Z,24.50
2018-09-16T09:17:43.555Z,23.80
2018-09-16T09:20:41.227Z,22.50
2018-09-16T09:23:39.703Z,21.20
2018-09-16T09:26:37.586Z,20.90
2018-09-16T09:29:35.141Z,20.70
2018-09-16T09:32:33.793Z,20.50
2018-09-16T09:35:31.574Z,19.90
2018-09-16T09:38:29.396Z,19.20
2018-09-16T09:41:26.831Z,18.90
2018-09-16T09:44:25.743Z,18.60
2018-09-16T09:47:24.465Z,18.30
2018-09-16T09:50:22.335Z,17.90
2018-09-16T09:53:21.117Z,17.50
2018-09-16T09:56:18.757Z,17.30
2018-09-16T09:59:16.676Z,17.00
2018-09-16T10:02:23.046Z,16.60
2018-09-16T10:05:20.687Z,16.30
2018-09-16T10:08:18.443Z,15.90
2018-09-16T10:11:15.864Z,15.80
2018-09-16T10:14:13.641Z,15.60
2018-09-16T10:17:11.203Z,15.60
2018-09-16T10:20:08.956Z,15.50
2018-09-16T10:23:06.659Z,15.40
2018-09-16T10:26:04.376Z,15.40
2018-09-16T10:29:03.240Z,15.50
2018-09-16T10:32:01.829Z,15.60
2018-09-16T10:34:59.465Z,15.60
2018-09-16T10:37:57.133Z,15.50
2018-09-16T10:40:55.007Z,15.60
2018-09-16T10:43:52.675Z,15.60
2018-09-16T10:46:50.999Z,15.70
2018-09-16T10:49:48.230Z,15.70
2018-09-16T10:52:45.986Z,15.70
2018-09-16T10:55:43.420Z,15.70
2018-09-16T10:58:41.175Z,15.70
2018-09-16T11:01:38.866Z,15.80
2018-09-16T11:04:36.666Z,15.90
2018-09-16T11:07:34.627Z,16.10
2018-09-16T11:10:31.926Z,16.30
2018-09-16T11:13:29.565Z,16.50
2018-09-16T11:16:27.076Z,16.60
2018-09-16T11:19:24.833Z,16.60
2018-09-16T11:22:22.320Z,16.60
2018-09-16T11:25:20.569Z,16.60
2018-09-16T11:28:19.343Z,16.60
2018-09-16T11:31:17.408Z,16.50
2018-09-16T11:34:14.994Z,16.40
2018-09-16T11:37:12.735Z,16.40
2018-09-16T11:40:10.372Z,16.30
2018-09-16T11:43:07.926Z,16.40
2018-09-16T11:46:06.835Z,16.40
2018-09-16T11:49:04.485Z,16.40
2018-09-16T11:52:02.191Z,16.40
2018-09-16T11:55:01.227Z,16.40
2018-09-16T11:57:59.392Z,16.40
2018-09-16T12:00:56.908Z,16.40
2018-09-16T12:03:54.449Z,16.50
2018-09-16T12:06:51.813Z,16.60
2018-09-16T12:09:49.487Z,16.80
2018-09-16T12:12:47.002Z,16.90
2018-09-16T12:15:44.791Z,17.00
2018-09-16T12:18:42.535Z,16.90
2018-09-16T12:21:40.199Z,16.90
2018-09-16T12:24:38.268Z,17.00
2018-09-16T12:27:35.874Z,17.00
2018-09-16T12:30:33.714Z,17.10
2018-09-16T12:33:31.332Z,17.80
2018-09-16T12:36:28.802Z,18.60
2018-09-16T12:39:28.641Z,19.30
2018-09-16T12:42:26.377Z,19.60
2018-09-16T12:45:24.355Z,20.10
2018-09-16T12:48:21.805Z,21.10
2018-09-16T12:51:19.385Z,21.50
2018-09-16T12:54:17.205Z,21.50
2018-09-16T12:57:14.919Z,21.40
2018-09-16T13:00:12.730Z,21.40
2018-09-16T13:03:10.378Z,21.40
2018-09-16T13:06:08.026Z,21.40
2018-09-16T13:09:05.746Z,21.20
2018-09-16T13:12:03.455Z,21.20
2018-09-16T13:15:01.385Z,21.00
2018-09-16T13:17:59.197Z,20.80
2018-09-16T13:20:56.528Z,20.60
2018-09-16T13:23:54.156Z,20.50
2018-09-16T13:26:51.688Z,20.60
2018-09-16T13:29:49.788Z,21.00
2018-09-16T13:32:49.486Z,20.80
2018-09-16T13:35:48.016Z,20.00
2018-09-16T13:38:45.571Z,19.60
2018-09-16T13:41:43.312Z,19.10
2018-09-16T13:44:40.862Z,18.70
2018-09-16T13:47:38.422Z,18.30
2018-09-16T13:50:36.031Z,17.80
2018-09-16T13:53:33.667Z,17.60
2018-09-16T13:56:31.292Z,17.60
2018-09-16T13:59:28.695Z,17.50
2018-09-16T14:02:26.316Z,17.40
2018-09-16T14:05:23.811Z,17.30
2018-09-16T14:08:25.599Z,17.20
2018-09-16T14:11:23.324Z,17.20
2018-09-16T14:14:20.930Z,17.10
2018-09-16T14:17:19.178Z,17.00
2018-09-16T14:20:17.194Z,17.00
2018-09-16T14:23:14.871Z,16.90
2018-09-16T14:26:12.451Z,16.70
2018-09-16T14:29:10.130Z,16.80
2018-09-16T14:32:07.955Z,16.80
2018-09-16T14:35:05.519Z,16.80
2018-09-16T14:38:03.250Z,16.80
2018-09-16T14:41:00.991Z,16.90
2018-09-16T14:43:58.726Z,16.80
2018-09-16T14:46:56.323Z,16.70
2018-09-16T14:49:54.047Z,16.80
2018-09-16T14:52:51.677Z,16.90
2018-09-16T14:55:48.960Z,16.70
2018-09-16T14:58:46.784Z,16.70
2018-09-16T15:01:44.375Z,16.60
2018-09-16T15:04:42.278Z,16.50
2018-09-16T15:07:39.935Z,16.50
2018-09-16T15:10:37.608Z,16.40
2018-09-16T15:13:35.553Z,16.30
2018-09-16T15:16:33.082Z,16.20
2018-09-16T15:19:30.638Z,16.30
2018-09-16T15:22:28.614Z,16.30
2018-09-16T15:25:26.364Z,16.30
2018-09-16T15:28:24.040Z,16.20
2018-09-16T15:31:22.738Z,16.20
2018-09-16T15:34:20.382Z,16.10
2018-09-16T15:37:19.240Z,16.10
2018-09-16T15:40:16.666Z,16.10
2018-09-16T15:43:14.373Z,16.10
2018-09-16T15:46:11.931Z,16.10
2018-09-16T15:49:09.609Z,16.00
2018-09-16T15:52:07.294Z,16.00
2018-09-16T15:55:05.023Z,16.00
2018-09-16T15:58:02.962Z,15.90
2018-09-16T16:01:31.812Z,15.90
2018-09-16T16:04:29.411Z,15.80
2018-09-16T16:07:27.157Z,15.80
2018-09-16T16:10:24.841Z,15.80
2018-09-16T16:13:22.719Z,15.70
2018-09-16T16:16:20.325Z,15.80
2018-09-16T16:19:18.120Z,15.70
2018-09-16T16:22:16.038Z,15.70
2018-09-16T16:25:13.688Z,15.60
2018-09-16T16:31:23.891Z,15.60
2018-09-16T16:34:21.498Z,15.50
2018-09-16T16:37:19.052Z,15.40
2018-09-16T16:40:16.847Z,15.40
2018-09-16T16:43:14.470Z,15.40
2018-09-16T16:46:12.046Z,15.40
2018-09-16T16:49:09.795Z,15.40
2018-09-16T16:52:08.436Z,15.40
2018-09-16T16:55:06.634Z,15.30
2018-09-16T16:58:04.175Z,15.40
2018-09-16T17:01:01.878Z,15.30
2018-09-16T17:04:00.568Z,15.30
2018-09-16T17:06:58.426Z,15.20
2018-09-16T17:09:56.163Z,15.20
2018-09-16T17:12:53.942Z,15.20
2018-09-16T17:15:51.902Z,15.20
2018-09-16T17:18:50.560Z,15.20
2018-09-16T17:21:48.208Z,15.10
2018-09-16T17:24:45.986Z,15.10
2018-09-16T17:27:43.665Z,15.10
2018-09-16T17:30:41.535Z,15.00
2018-09-16T17:33:39.216Z,15.00
2018-09-16T17:36:37.083Z,15.00
2018-09-16T17:39:34.639Z,14.90
2018-09-16T17:42:33.316Z,14.90
2018-09-16T17:45:31.091Z,14.90
2018-09-16T17:48:28.710Z,14.80
2018-09-16T17:51:26.332Z,14.80
2018-09-16T17:54:24.237Z,14.80
2018-09-16T17:57:21.963Z,14.80
2018-09-16T18:00:19.551Z,14.80
2018-09-16T18:03:17.194Z,14.80
2018-09-16T18:06:15.858Z,14.80
2018-09-16T18:09:13.525Z,14.80
2018-09-16T18:12:11.262Z,14.70
2018-09-16T18:15:09.130Z,14.70
2018-09-16T18:18:06.777Z,14.70
2018-09-16T18:21:04.364Z,14.70
2018-09-16T18:24:02.037Z,14.70
2018-09-16T18:27:00.982Z,14.60
2018-09-16T18:29:58.769Z,14.60
2018-09-16T18:32:56.302Z,14.40
2018-09-16T18:35:54.458Z,14.40
2018-09-16T18:38:51.996Z,14.30
2018-09-16T18:41:49.717Z,14.30
2018-09-16T18:44:47.124Z,14.30
2018-09-16T18:47:44.941Z,14.20
2018-09-16T18:50:43.710Z,14.20
2018-09-16T18:53:41.468Z,14.10
2018-09-16T18:56:39.098Z,14.20
2018-09-16T18:59:37.722Z,14.20
2018-09-16T19:02:35.311Z,14.20
2018-09-16T19:05:33.187Z,14.20
2018-09-16T19:08:30.879Z,14.10
2018-09-16T19:11:28.524Z,14.10
2018-09-16T19:14:26.514Z,14.10
2018-09-16T19:17:24.080Z,14.10
2018-09-16T19:20:21.632Z,14.10
2018-09-16T19:23:19.440Z,14.00
2018-09-16T19:26:18.104Z,14.00
2018-09-16T19:29:15.624Z,13.90
2018-09-16T19:32:14.491Z,13.90
2018-09-16T19:35:12.124Z,13.80
2018-09-16T19:38:10.013Z,13.80
2018-09-16T19:41:07.939Z,13.80
2018-09-16T19:44:06.398Z,13.80
2018-09-16T19:47:04.216Z,13.70
2018-09-16T19:50:01.876Z,13.70
2018-09-16T19:52:59.838Z,13.60
2018-09-16T19:55:57.279Z,13.60
2018-09-16T19:58:54.839Z,13.60
2018-09-16T20:01:52.728Z,13.50
2018-09-16T20:04:50.672Z,13.60
2018-09-16T20:07:48.406Z,13.60
2018-09-16T20:10:46.047Z,13.50
2018-09-16T20:13:44.131Z,13.50
2018-09-16T20:16:41.831Z,13.50
2018-09-16T20:19:39.548Z,13.50
2018-09-16T20:22:37.307Z,13.50
2018-09-16T20:25:35.052Z,13.50
2018-09-16T20:28:32.750Z,13.40
2018-09-16T20:31:30.458Z,13.40
2018-09-16T20:34:28.093Z,13.40
2018-09-16T20:37:25.887Z,13.40
2018-09-16T20:40:23.847Z,13.40
2018-09-16T20:43:21.465Z,13.40
2018-09-16T20:46:19.227Z,13.40
2018-09-16T20:49:16.986Z,13.40
2018-09-16T20:52:14.646Z,13.40
2018-09-16T20:55:12.278Z,13.40
2018-09-16T20:58:09.993Z,13.40
2018-09-16T21:01:07.459Z,13.40
2018-09-16T21:04:05.234Z,13.40
2018-09-16T21:07:02.705Z,13.30
2018-09-16T21:10:00.500Z,13.30
2018-09-16T21:12:58.250Z,13.20
2018-09-16T21:15:55.891Z,13.20
2018-09-16T21:18:53.680Z,13.10
2018-09-16T21:21:52.624Z,13.10
2018-09-16T21:24:50.213Z,13.00
2018-09-16T21:27:47.867Z,13.00
2018-09-16T21:30:45.694Z,12.90
2018-09-16T21:33:43.648Z,12.90
2018-09-16T21:36:41.375Z,12.80
2018-09-16T21:39:39.331Z,12.80
2018-09-16T21:42:37.188Z,12.60
2018-09-16T21:45:35.387Z,12.50
2018-09-16T21:48:33.117Z,12.40
2018-09-16T21:51:30.703Z,12.40
2018-09-16T21:54:28.639Z,12.40
2018-09-16T21:57:26.615Z,12.30
2018-09-16T22:00:24.573Z,12.30
2018-09-16T22:03:22.691Z,12.30
2018-09-16T22:06:20.263Z,12.20
2018-09-16T22:09:18.904Z,12.20
2018-09-16T22:12:16.612Z,12.20
2018-09-16T22:15:14.497Z,12.20
2018-09-16T22:18:12.221Z,12.20
2018-09-16T22:21:09.969Z,12.30
2018-09-16T22:24:07.470Z,12.20
2018-09-16T22:27:05.171Z,12.30
2018-09-16T22:30:02.890Z,12.30
2018-09-16T22:33:00.609Z,12.30
2018-09-16T22:35:58.373Z,12.30
2018-09-16T22:38:56.335Z,12.30
2018-09-16T22:41:55.104Z,12.30
2018-09-16T22:44:53.158Z,12.30
2018-09-16T22:48:22.115Z,12.40
2018-09-16T22:51:19.791Z,12.40
2018-09-16T22:54:17.541Z,12.40
2018-09-16T22:57:15.390Z,12.50
2018-09-16T23:00:13.260Z,12.60
2018-09-16T23:03:11.270Z,12.60
2018-09-16T23:06:09.184Z,12.50
2018-09-16T23:09:12.722Z,12.50
2018-09-16T23:12:10.579Z,12.50
2018-09-16T23:15:08.176Z,12.40
2018-09-16T23:18:06.163Z,12.50
2018-09-16T23:21:03.962Z,12.40
2018-09-16T23:24:01.749Z,12.40
2018-09-16T23:26:59.447Z,12.40
2018-09-16T23:29:57.041Z,12.40
2018-09-16T23:32:54.768Z,12.40
2018-09-16T23:35:52.532Z,12.40
2018-09-16T23:38:50.208Z,12.40
2018-09-16T23:41:47.968Z,12.40
2018-09-16T23:44:45.635Z,12.40
2018-09-16T23:47:43.497Z,12.40
2018-09-16T23:50:41.193Z,12.40
2018-09-16T23:53:38.911Z,12.50
2018-09-16T23:56:36.535Z,12.40
2018-09-16T23:59:34.356Z,12.50
